Terminal Aerodrome Forecast
Issued by NWS Melbourne, FL

Current Version | Previous Version | Text Only | Print | Product List | Glossary On
Versions: 1 2 3 4 5 6 7 8 9 10 11 12 13 14
000
FTUS42 KMLB 062337
TAFDAB
TAF
KDAB 062337Z 0700/0724 02012KT P6SM SCT015 SCT025 BKN090
     FM070600 34011KT P6SM SCT015 SCT025 SCT250
     FM071400 32010KT P6SM FEW020 FEW250
     FM072100 03009KT P6SM SCT020=

USA.gov is the U.S. government's official web portal to all federal, state and local government web resources and services.